Time;durP1;ratioP1;P1;durP2;ratioP2;P2;SDS_P1;SDS_P2;PMS_P1;PMS_P2;Temp;Humidity;BMP_temperature;BMP_pressure;BME280_temperature;BME280_humidity;BME280_pressure;Samples;Min_cycle;Max_cycle;Signal;HPM_P1;HPM_P2
2024/03/09 06:02:10;;;;;;;27.90;15.05;;;3.90;93.70;;;;;;4051338;29;20051;-75
2024/03/09 06:04:12;;;;;;;27.67;15.27;;;3.90;93.90;;;;;;4053346;29;20048;-77
2024/03/09 06:06:14;;;;;;;26.63;14.63;;;3.90;94.00;;;;;;4053412;29;20542;-76
2024/03/09 06:08:17;;;;;;;26.90;15.35;;;3.90;94.00;;;;;;4053286;29;20052;-77
2024/03/09 06:10:19;;;;;;;26.77;14.95;;;3.90;94.20;;;;;;4053628;29;20048;-79
2024/03/09 06:12:21;;;;;;;28.15;14.55;;;4.00;94.10;;;;;;4052687;29;20474;-78
2024/03/09 06:14:24;;;;;;;26.67;15.23;;;4.00;93.90;;;;;;4053190;29;20135;-78
2024/03/09 06:16:25;;;;;;;26.92;15.45;;;3.90;94.10;;;;;;4053290;29;20296;-78
2024/03/09 06:18:28;;;;;;;27.02;15.15;;;3.90;94.20;;;;;;4053344;29;20454;-78
2024/03/09 06:20:32;;;;;;;26.33;14.48;;;3.90;94.20;;;;;;4053049;29;20052;-79
2024/03/09 06:22:34;;;;;;;28.58;15.10;;;3.90;94.10;;;;;;4046991;29;20048;-77
2024/03/09 06:24:36;;;;;;;25.23;14.55;;;3.90;94.10;;;;;;4046853;29;20100;-79
2024/03/09 06:26:38;;;;;;;25.48;14.38;;;4.00;93.90;;;;;;4046546;29;20105;-78
2024/03/09 06:28:40;;;;;;;28.67;14.90;;;4.00;93.70;;;;;;4048773;29;20049;-78
2024/03/09 06:30:42;;;;;;;27.27;14.55;;;4.00;93.80;;;;;;4052968;29;20160;-77
2024/03/09 06:32:44;;;;;;;25.58;14.68;;;4.00;93.50;;;;;;4053094;29;20059;-79
2024/03/09 06:34:47;;;;;;;24.90;14.38;;;4.00;93.60;;;;;;4061702;29;20139;-78
2024/03/09 06:36:48;;;;;;;26.92;14.93;;;4.10;93.70;;;;;;4062420;29;20049;-75
2024/03/09 06:38:50;;;;;;;28.40;15.15;;;4.10;93.60;;;;;;4052189;29;20076;-77
2024/03/09 06:40:52;;;;;;;24.98;14.10;;;4.10;93.80;;;;;;4040949;29;20053;-78
2024/03/09 06:42:58;;;;;;;26.23;15.77;;;4.10;93.80;;;;;;4051713;29;20482;-77
2024/03/09 06:45:00;;;;;;;26.88;15.40;;;4.10;93.80;;;;;;4053519;29;20064;-77
2024/03/09 06:47:02;;;;;;;26.92;16.00;;;4.10;93.80;;;;;;4061393;29;20040;-75
2024/03/09 06:49:05;;;;;;;30.20;15.45;;;4.20;93.70;;;;;;4053493;29;20052;-78
2024/03/09 06:51:08;;;;;;;29.60;17.00;;;4.30;93.50;;;;;;4054631;29;20052;-77
2024/03/09 06:53:10;;;;;;;26.50;15.35;;;4.30;93.40;;;;;;4044836;29;20044;-77
2024/03/09 06:55:12;;;;;;;25.00;14.70;;;4.40;93.20;;;;;;4074792;29;20135;-77
2024/03/09 06:57:15;;;;;;;27.25;14.88;;;4.40;93.20;;;;;;4080620;29;20078;-77
2024/03/09 06:59:17;;;;;;;26.90;14.63;;;4.40;93.20;;;;;;4086706;29;20044;-76
2024/03/09 07:01:21;;;;;;;29.20;16.08;;;4.30;93.40;;;;;;4087151;29;20486;-80
2024/03/09 07:03:23;;;;;;;26.13;15.00;;;4.40;93.40;;;;;;4086974;29;20043;-77
2024/03/09 07:05:27;;;;;;;28.58;15.48;;;4.40;93.30;;;;;;4086582;29;20040;-79
2024/03/09 07:07:30;;;;;;;26.25;14.77;;;4.50;93.20;;;;;;4086872;29;20086;-78
2024/03/09 07:09:32;;;;;;;25.50;15.05;;;4.40;93.30;;;;;;4087031;29;20052;-79
2024/03/09 07:11:34;;;;;;;25.90;14.65;;;4.40;93.60;;;;;;4087198;29;20048;-78
2024/03/09 07:13:36;;;;;;;26.48;14.95;;;4.50;93.40;;;;;;4078588;29;20047;-79
2024/03/09 07:15:38;;;;;;;26.10;14.85;;;4.50;93.00;;;;;;4076006;29;20088;-75
2024/03/09 07:17:38;;;;;;;25.67;14.55;;;4.60;92.80;;;;;;4072800;29;20059;-77
2024/03/09 07:19:40;;;;;;;26.75;14.93;;;4.60;92.60;;;;;;4079350;29;20055;-76
2024/03/09 07:21:42;;;;;;;24.13;14.38;;;4.60;92.70;;;;;;4086606;29;20043;-78
2024/03/09 07:23:45;;;;;;;26.70;14.88;;;4.60;92.70;;;;;;4087201;29;20048;-73
2024/03/09 07:25:49;;;;;;;25.25;14.45;;;4.60;92.70;;;;;;4087078;29;20047;-75
2024/03/09 07:27:51;;;;;;;26.40;15.32;;;4.70;92.70;;;;;;4086530;29;20065;-77
2024/03/09 07:29:54;;;;;;;26.50;14.82;;;4.80;92.40;;;;;;4086773;29;20055;-77
2024/03/09 07:31:56;;;;;;;23.45;13.82;;;4.80;92.30;;;;;;4086829;29;20142;-76
2024/03/09 07:33:58;;;;;;;27.48;15.13;;;4.90;92.30;;;;;;4086399;29;20048;-78
2024/03/09 07:35:59;;;;;;;26.45;14.82;;;4.90;92.20;;;;;;4086451;29;20052;-78
2024/03/09 07:38:01;;;;;;;26.40;14.77;;;4.90;92.10;;;;;;4076603;29;20545;-77
2024/03/09 07:40:06;;;;;;;26.17;14.68;;;5.00;92.20;;;;;;4085267;29;20052;-78
2024/03/09 07:42:09;;;;;;;27.88;15.30;;;5.00;92.10;;;;;;4086576;29;20111;-78
2024/03/09 07:44:12;;;;;;;28.48;15.25;;;5.10;92.00;;;;;;4083925;29;20090;-76
2024/03/09 07:46:15;;;;;;;24.40;14.23;;;5.10;92.00;;;;;;4089973;29;20048;-76
2024/03/09 07:48:17;;;;;;;27.15;14.85;;;5.10;92.00;;;;;;4092967;29;20050;-78
2024/03/09 07:50:21;;;;;;;24.73;14.90;;;5.20;91.80;;;;;;4086428;29;20083;-77
2024/03/09 07:52:23;;;;;;;26.38;15.07;;;5.30;91.70;;;;;;4086608;29;20079;-77
2024/03/09 07:54:25;;;;;;;25.98;14.82;;;5.30;91.60;;;;;;4086481;29;20095;-77
2024/03/09 07:56:28;;;;;;;24.98;14.27;;;5.40;91.50;;;;;;4086292;29;20055;-79
2024/03/09 07:58:30;;;;;;;24.90;14.68;;;5.40;91.70;;;;;;4085392;29;20047;-78
2024/03/09 08:00:33;;;;;;;27.60;13.75;;;5.50;91.30;;;;;;4084272;29;20054;-77
2024/03/09 08:02:36;;;;;;;24.73;13.73;;;5.50;91.40;;;;;;4076683;29;20055;-78
2024/03/09 08:04:39;;;;;;;25.75;14.15;;;5.50;91.30;;;;;;4082576;29;20516;-77
2024/03/09 08:06:43;;;;;;;27.13;13.98;;;5.60;91.40;;;;;;4086072;29;20052;-78
2024/03/09 08:08:45;;;;;;;24.83;14.75;;;5.70;91.40;;;;;;4085961;29;20205;-78
2024/03/09 08:10:52;;;;;;;25.65;15.40;;;5.70;91.40;;;;;;4086134;29;20051;-78
2024/03/09 08:12:56;;;;;;;26.60;15.50;;;5.70;91.40;;;;;;4085534;29;20138;-79
2024/03/09 08:14:58;;;;;;;27.80;16.35;;;5.80;91.40;;;;;;4080737;29;20481;-77
2024/03/09 08:16:59;;;;;;;27.67;15.52;;;5.80;91.20;;;;;;4078357;29;20441;-75
2024/03/09 08:19:02;;;;;;;29.90;15.75;;;5.80;91.20;;;;;;4076677;29;20106;-75
2024/03/09 08:21:05;;;;;;;25.77;14.98;;;5.90;91.30;;;;;;4077807;29;20103;-79
2024/03/09 08:23:06;;;;;;;25.67;14.63;;;5.90;91.20;;;;;;4073273;29;20058;-75
2024/03/09 08:25:11;;;;;;;23.75;14.75;;;5.90;91.20;;;;;;4078114;29;20497;-77
2024/03/09 08:27:14;;;;;;;27.08;15.23;;;6.00;91.20;;;;;;4079559;29;20044;-75
2024/03/09 08:29:18;;;;;;;27.02;15.80;;;5.90;91.20;;;;;;4082650;29;20047;-75
2024/03/09 08:31:19;;;;;;;25.95;14.35;;;5.90;91.40;;;;;;4079403;29;20044;-76
2024/03/09 08:33:21;;;;;;;28.45;15.23;;;6.00;91.40;;;;;;4081771;29;20051;-77
2024/03/09 08:35:22;;;;;;;26.75;15.48;;;6.00;91.20;;;;;;4075267;29;20051;-75
2024/03/09 08:37:25;;;;;;;28.63;14.88;;;6.10;91.10;;;;;;4079325;29;20395;-77
2024/03/09 08:39:26;;;;;;;24.38;14.52;;;6.10;91.20;;;;;;4083127;29;20048;-76
2024/03/09 08:41:28;;;;;;;24.52;14.35;;;6.20;91.30;;;;;;4077249;29;20091;-75
2024/03/09 08:43:31;;;;;;;26.90;14.73;;;6.20;91.40;;;;;;4076746;29;20039;-76
2024/03/09 08:45:34;;;;;;;25.85;14.65;;;6.30;91.30;;;;;;4072552;29;20104;-75
2024/03/09 08:47:36;;;;;;;26.92;15.20;;;6.30;91.10;;;;;;4075269;29;20071;-77
2024/03/09 08:49:39;;;;;;;25.33;15.10;;;6.40;91.00;;;;;;4075712;29;20052;-75
2024/03/09 08:51:40;;;;;;;24.77;13.98;;;6.40;91.00;;;;;;4082904;29;20677;-77
2024/03/09 08:53:42;;;;;;;27.60;14.82;;;6.50;90.70;;;;;;4082571;29;20060;-76
2024/03/09 08:55:45;;;;;;;26.38;15.32;;;6.50;90.60;;;;;;4081828;29;20095;-78
2024/03/09 08:57:49;;;;;;;24.98;14.40;;;6.50;90.70;;;;;;4084498;29;20056;-74
2024/03/09 08:59:54;;;;;;;25.80;15.05;;;6.60;90.80;;;;;;4083042;29;20454;-75
2024/03/09 09:01:58;;;;;;;24.33;14.40;;;6.70;90.60;;;;;;4082615;29;20528;-76
2024/03/09 09:04:03;;;;;;;23.63;13.90;;;6.70;90.50;;;;;;4082437;29;20040;-76
2024/03/09 09:06:08;;;;;;;26.20;15.13;;;6.80;90.40;;;;;;4076553;29;20052;-76
2024/03/09 09:08:17;;;;;;;24.15;14.20;;;6.80;90.40;;;;;;4076563;29;20502;-76
2024/03/09 09:10:21;;;;;;;23.90;13.95;;;6.90;90.60;;;;;;4069427;29;20051;-77
2024/03/09 09:12:23;;;;;;;24.27;14.35;;;6.90;90.50;;;;;;4081072;29;20051;-76
2024/03/09 09:14:25;;;;;;;26.77;15.48;;;7.00;90.40;;;;;;4072220;29;20514;-74
2024/03/09 09:16:26;;;;;;;25.15;15.07;;;7.00;90.40;;;;;;4078988;29;20051;-77
2024/03/09 09:18:30;;;;;;;25.25;15.18;;;7.10;90.60;;;;;;4077589;29;20044;-78
2024/03/09 09:20:31;;;;;;;23.35;14.27;;;7.20;90.40;;;;;;4084130;29;20379;-77
2024/03/09 09:22:33;;;;;;;24.85;14.45;;;7.20;90.00;;;;;;4076149;29;20048;-75
2024/03/09 09:24:36;;;;;;;25.50;14.15;;;7.30;89.90;;;;;;4082349;29;20040;-78
2024/03/09 09:26:38;;;;;;;25.65;14.20;;;7.30;89.40;;;;;;4076628;29;20059;-75
2024/03/09 09:28:40;;;;;;;20.75;12.45;;;7.40;88.80;;;;;;4078763;29;20052;-76
2024/03/09 09:30:40;;;;;;;23.08;13.43;;;7.50;90.30;;;;;;4076460;29;20092;-76
2024/03/09 09:32:43;;;;;;;23.65;14.20;;;7.50;88.20;;;;;;4074612;29;20044;-77
2024/03/09 09:34:46;;;;;;;25.35;14.70;;;7.50;87.90;;;;;;4079288;29;20071;-78
2024/03/09 09:36:48;;;;;;;23.75;14.13;;;7.60;87.70;;;;;;4080757;29;20059;-79
2024/03/09 09:38:50;;;;;;;23.48;13.68;;;7.60;87.90;;;;;;4075761;29;20044;-77
2024/03/09 09:40:52;;;;;;;26.30;15.25;;;7.70;88.30;;;;;;4077443;29;20076;-77
2024/03/09 09:42:54;;;;;;;24.35;14.13;;;7.70;87.90;;;;;;4072479;29;20474;-77
2024/03/09 09:44:57;;;;;;;27.30;15.18;;;7.80;87.80;;;;;;4067562;29;20048;-77
2024/03/09 09:46:59;;;;;;;26.77;14.55;;;7.90;87.80;;;;;;4076859;29;20043;-77
2024/03/09 09:49:02;;;;;;;24.17;13.82;;;7.90;87.80;;;;;;4076835;29;20633;-75
2024/03/09 09:51:07;;;;;;;26.75;14.52;;;8.00;87.80;;;;;;4070313;29;20056;-76
2024/03/09 09:53:14;;;;;;;23.92;13.65;;;8.10;87.70;;;;;;4070461;29;20060;-76
2024/03/09 09:55:19;;;;;;;23.83;14.18;;;8.10;87.60;;;;;;4082048;29;20044;-77
2024/03/09 09:57:21;;;;;;;23.20;13.50;;;8.20;87.90;;;;;;4078950;29;20079;-77
2024/03/09 09:59:23;;;;;;;21.13;13.00;;;8.20;88.30;;;;;;4073992;29;20047;-77
2024/03/09 10:01:25;;;;;;;24.90;13.50;;;8.30;90.20;;;;;;4073466;29;20052;-78
2024/03/09 10:03:27;;;;;;;23.80;13.63;;;8.40;89.70;;;;;;4073859;29;20047;-74
2024/03/09 10:05:29;;;;;;;24.20;14.10;;;8.50;89.20;;;;;;4076001;29;20044;-78
2024/03/09 10:07:33;;;;;;;23.73;13.85;;;8.50;88.80;;;;;;4077612;29;20434;-79
2024/03/09 10:09:35;;;;;;;22.52;13.52;;;8.60;88.50;;;;;;4079915;29;20043;-78
2024/03/09 10:11:37;;;;;;;27.50;15.15;;;8.70;88.10;;;;;;4070635;29;20044;-78
2024/03/09 10:13:39;;;;;;;26.80;15.25;;;8.70;88.20;;;;;;4073491;29;20044;-80
2024/03/09 10:15:43;;;;;;;25.00;15.05;;;8.70;87.70;;;;;;4077467;29;20051;-76
2024/03/09 10:17:45;;;;;;;24.38;14.27;;;8.80;86.20;;;;;;4070561;29;20078;-78
2024/03/09 10:19:47;;;;;;;25.08;14.25;;;8.80;87.00;;;;;;4068596;29;20048;-77
2024/03/09 10:21:51;;;;;;;22.38;14.18;;;8.90;87.30;;;;;;4068550;29;20131;-78
2024/03/09 10:24:03;;;;;;;24.65;14.80;;;8.90;87.20;;;;;;4070676;29;20051;-79
2024/03/09 10:26:09;;;;;;;25.27;14.40;;;9.00;87.40;;;;;;4079748;29;20048;-79
2024/03/09 10:28:11;;;;;;;22.63;14.15;;;9.10;87.40;;;;;;4069129;29;20056;-78
2024/03/09 10:30:15;;;;;;;23.67;15.13;;;9.20;86.80;;;;;;4075027;29;20047;-78
2024/03/09 10:32:19;;;;;;;;;;;9.20;86.10;;;;;;4068784;29;20458;-78
2024/03/09 10:34:28;;;;;;;25.65;14.52;;;9.30;86.60;;;;;;4075489;29;19994;-77
2024/03/09 10:36:32;;;;;;;24.10;13.63;;;9.40;85.70;;;;;;4074090;29;20453;-76
2024/03/09 10:38:38;;;;;;;21.52;12.13;;;9.50;85.80;;;;;;4074571;29;20052;-79
2024/03/09 10:40:41;;;;;;;25.40;14.38;;;9.60;90.60;;;;;;4073815;29;20052;-79
2024/03/09 10:42:45;;;;;;;20.70;12.90;;;9.70;87.60;;;;;;4076787;29;20183;-78
2024/03/09 10:44:52;;;;;;;24.98;13.70;;;9.80;85.00;;;;;;4078566;29;20115;-75
2024/03/09 10:46:57;;;;;;;24.20;14.32;;;9.80;86.40;;;;;;4077012;29;20045;-77
2024/03/09 10:48:59;;;;;;;23.13;12.93;;;9.90;84.80;;;;;;4073498;29;20044;-77
2024/03/09 10:51:18;;;;;;;23.55;13.57;;;10.00;84.10;;;;;;4080523;29;20048;-78
2024/03/09 10:53:37;;;;;;;19.73;12.38;;;10.10;84.40;;;;;;4076830;29;20080;-75
2024/03/09 10:55:52;;;;;;;19.60;11.98;;;10.30;84.20;;;;;;4068219;29;20052;-78
2024/03/09 10:57:57;;;;;;;19.83;11.73;;;10.40;83.70;;;;;;4069270;29;20044;-79
2024/03/09 11:00:01;;;;;;;18.80;11.48;;;10.50;83.20;;;;;;4070427;29;20048;-79
2024/03/09 11:02:03;;;;;;;17.02;10.68;;;10.60;82.80;;;;;;4072807;29;20059;-75
2024/03/09 11:04:07;;;;;;;16.20;9.48;;;10.70;80.90;;;;;;4065164;29;20048;-78
2024/03/09 11:06:11;;;;;;;15.13;8.95;;;10.90;80.20;;;;;;4072468;29;20048;-77
2024/03/09 11:08:13;;;;;;;15.30;9.05;;;11.00;78.90;;;;;;4077025;29;20083;-78
2024/03/09 11:10:15;;;;;;;16.92;8.98;;;11.10;77.80;;;;;;4072377;29;20044;-76
2024/03/09 11:12:19;;;;;;;16.83;8.90;;;11.20;78.40;;;;;;4076197;29;20044;-76
2024/03/09 11:14:22;;;;;;;11.13;6.00;;;11.30;76.70;;;;;;4079664;29;20044;-77
2024/03/09 11:16:24;;;;;;;10.98;5.70;;;11.50;72.90;;;;;;4070767;29;20124;-77
2024/03/09 11:18:26;;;;;;;9.95;5.50;;;11.60;71.40;;;;;;4072629;29;20047;-78
2024/03/09 11:20:28;;;;;;;7.60;4.80;;;11.60;70.70;;;;;;4068621;29;20425;-77
2024/03/09 11:22:40;;;;;;;9.07;5.20;;;11.70;70.70;;;;;;4073117;29;20075;-76
2024/03/09 11:24:43;;;;;;;8.90;4.80;;;11.70;70.10;;;;;;4076658;29;20127;-77
2024/03/09 11:26:52;;;;;;;9.65;4.97;;;11.80;69.30;;;;;;4072126;29;20056;-78
2024/03/09 11:28:56;;;;;;;10.20;4.82;;;11.90;67.80;;;;;;4073328;29;20086;-78
2024/03/09 11:31:11;;;;;;;6.65;3.63;;;12.10;66.50;;;;;;4067876;29;20047;-79
2024/03/09 11:33:15;;;;;;;7.30;3.72;;;12.20;60.50;;;;;;4074003;29;20082;-77
2024/03/09 11:35:29;;;;;;;6.55;3.50;;;12.30;57.70;;;;;;4072299;29;20048;-75
2024/03/09 11:37:45;;;;;;;8.23;3.45;;;12.50;57.00;;;;;;4076085;29;20201;-76
2024/03/09 11:39:47;;;;;;;5.55;3.03;;;12.60;56.20;;;;;;4075814;29;20179;-76
2024/03/09 11:41:50;;;;;;;5.88;3.10;;;12.70;55.00;;;;;;4075359;29;20080;-79
2024/03/09 11:43:52;;;;;;;6.25;3.08;;;12.80;56.30;;;;;;4076501;29;20084;-78
2024/03/09 11:45:56;;;;;;;7.32;3.28;;;13.00;54.70;;;;;;4068851;29;20048;-78
2024/03/09 11:47:58;;;;;;;5.75;2.97;;;13.00;54.40;;;;;;4075902;29;20055;-80
2024/03/09 11:50:02;;;;;;;8.95;3.28;;;13.10;53.90;;;;;;4069097;29;20048;-80
2024/03/09 11:52:10;;;;;;;5.80;3.10;;;13.20;54.20;;;;;;4068727;29;20099;-78
2024/03/09 11:54:13;;;;;;;5.72;3.00;;;13.30;53.30;;;;;;4069821;29;20047;-76
2024/03/09 11:56:16;;;;;;;6.32;2.97;;;13.50;53.10;;;;;;4073039;29;20508;-74
2024/03/09 11:58:20;;;;;;;5.63;2.95;;;13.70;53.20;;;;;;4084400;29;20107;-75
2024/03/09 12:00:23;;;;;;;6.68;3.65;;;13.80;52.30;;;;;;4084390;29;20071;-74
2024/03/09 12:02:27;;;;;;;6.38;3.55;;;13.90;50.80;;;;;;4085035;29;20123;-75
2024/03/09 12:04:32;;;;;;;6.32;3.47;;;14.10;50.80;;;;;;4086029;29;20063;-76
2024/03/09 12:06:34;;;;;;;5.90;3.35;;;14.20;50.20;;;;;;4085118;29;20051;-74
2024/03/09 12:08:37;;;;;;;7.70;3.85;;;14.40;50.10;;;;;;4086584;29;20541;-77
2024/03/09 12:10:41;;;;;;;7.43;4.00;;;14.50;49.20;;;;;;4086192;29;20054;-77
2024/03/09 12:12:44;;;;;;;8.10;5.00;;;14.60;48.10;;;;;;4086492;29;20056;-74
2024/03/09 12:14:47;;;;;;;6.65;4.07;;;14.70;47.90;;;;;;4085925;29;20047;-75
2024/03/09 12:16:50;;;;;;;7.53;4.07;;;14.80;47.30;;;;;;4085999;29;20441;-77
2024/03/09 12:18:52;;;;;;;7.82;3.50;;;15.00;47.00;;;;;;4086496;29;20442;-79
2024/03/09 12:20:55;;;;;;;6.40;3.38;;;15.10;46.40;;;;;;4086245;29;20052;-78
2024/03/09 12:22:57;;;;;;;6.80;4.10;;;15.20;45.80;;;;;;4085666;29;20115;-78
2024/03/09 12:25:00;;;;;;;5.95;3.42;;;15.40;45.50;;;;;;4086098;29;20055;-78
2024/03/09 12:27:02;;;;;;;7.22;3.95;;;15.50;46.80;;;;;;4085461;29;20083;-78
2024/03/09 12:29:07;;;;;;;7.60;3.92;;;15.70;46.10;;;;;;4086072;29;20379;-77
2024/03/09 12:31:11;;;;;;;6.10;3.53;;;15.80;45.20;;;;;;4085836;29;20602;-78
2024/03/09 12:33:14;;;;;;;5.88;3.30;;;15.90;45.40;;;;;;4085937;29;20086;-76
2024/03/09 12:35:19;;;;;;;6.70;3.75;;;16.00;44.70;;;;;;4085547;29;20115;-79
2024/03/09 12:37:30;;;;;;;6.68;3.88;;;16.20;44.40;;;;;;4085577;29;20193;-79
2024/03/09 12:39:32;;;;;;;5.93;3.45;;;16.20;43.40;;;;;;4085812;29;20097;-79
2024/03/09 12:41:35;;;;;;;6.53;3.88;;;16.30;43.50;;;;;;4085877;29;20099;-77
2024/03/09 12:43:39;;;;;;;6.68;3.95;;;16.50;44.10;;;;;;4085987;29;20421;-76
2024/03/09 12:45:41;;;;;;;7.47;4.00;;;16.60;43.20;;;;;;4085869;29;20059;-76
2024/03/09 12:47:43;;;;;;;7.25;3.90;;;16.70;43.00;;;;;;4085273;29;20070;-78
2024/03/09 12:49:45;;;;;;;8.48;3.70;;;16.80;43.30;;;;;;4085545;29;20490;-76
2024/03/09 12:51:50;;;;;;;7.82;4.57;;;16.90;43.70;;;;;;4086029;29;20533;-77
2024/03/09 12:53:58;;;;;;;8.35;4.63;;;16.90;42.20;;;;;;4085627;29;20118;-77
2024/03/09 12:56:00;;;;;;;8.38;4.65;;;17.00;42.40;;;;;;4085790;29;20509;-76
2024/03/09 12:58:02;;;;;;;10.70;5.85;;;16.90;41.70;;;;;;4085668;29;20135;-79
2024/03/09 13:00:11;;;;;;;7.35;3.90;;;16.90;41.60;;;;;;4085736;29;20060;-78
2024/03/09 13:02:15;;;;;;;7.72;4.53;;;17.00;41.60;;;;;;4085519;29;20553;-78
2024/03/09 13:04:18;;;;;;;7.90;4.07;;;17.00;41.90;;;;;;4085585;29;20055;-75
2024/03/09 13:06:20;;;;;;;7.13;4.13;;;17.10;40.80;;;;;;4085463;29;20546;-77
2024/03/09 13:08:26;;;;;;;7.10;3.88;;;17.20;42.10;;;;;;4085401;29;20058;-78
2024/03/09 13:10:30;;;;;;;7.57;4.00;;;17.30;41.70;;;;;;4085524;29;20051;-76
2024/03/09 13:12:32;;;;;;;6.30;3.95;;;17.30;40.90;;;;;;4085491;29;20047;-79
2024/03/09 13:14:36;;;;;;;9.52;3.65;;;17.40;41.10;;;;;;4085448;29;20197;-77
2024/03/09 13:16:40;;;;;;;7.95;4.10;;;17.60;40.50;;;;;;4085410;29;20598;-78
2024/03/09 13:18:42;;;;;;;8.38;3.88;;;17.80;41.30;;;;;;4085336;29;20051;-80
2024/03/09 13:20:48;;;;;;;5.65;3.15;;;18.10;40.60;;;;;;4085083;29;20047;-78
2024/03/09 13:22:49;;;;;;;6.38;3.40;;;18.30;36.90;;;;;;4085265;29;20051;-78
2024/03/09 13:24:52;;;;;;;6.00;3.00;;;18.40;37.40;;;;;;4085282;29;20079;-77
2024/03/09 13:26:56;;;;;;;6.10;2.95;;;18.40;36.70;;;;;;4085308;29;20454;-79
2024/03/09 13:29:00;;;;;;;7.10;3.45;;;18.40;36.10;;;;;;4085228;29;20043;-78
2024/03/09 13:31:03;;;;;;;5.65;2.70;;;18.60;36.90;;;;;;4080318;29;20351;-77
2024/03/09 13:33:08;;;;;;;6.22;2.95;;;18.80;35.90;;;;;;4069449;29;20060;-80
2024/03/09 13:35:12;;;;;;;5.90;3.13;;;19.00;36.00;;;;;;4069528;29;20044;-78
2024/03/09 13:37:14;;;;;;;4.97;2.58;;;19.20;33.80;;;;;;4069666;29;20406;-79
2024/03/09 13:39:17;;;;;;;7.15;3.03;;;19.30;33.40;;;;;;4069501;29;20095;-79
2024/03/09 13:41:23;;;;;;;5.38;2.83;;;19.80;34.00;;;;;;4069381;29;20051;-77
2024/03/09 13:43:24;;;;;;;5.68;2.90;;;20.10;32.50;;;;;;4069598;29;20139;-77
2024/03/09 13:45:28;;;;;;;5.88;2.60;;;20.40;32.10;;;;;;4069508;29;20405;-78
2024/03/09 13:47:29;;;;;;;4.65;2.42;;;20.40;29.70;;;;;;4069342;29;20076;-77
2024/03/09 13:49:31;;;;;;;4.85;2.45;;;20.50;30.30;;;;;;4069351;29;20055;-77
2024/03/09 13:51:32;;;;;;;5.13;2.60;;;20.60;30.00;;;;;;4069215;29;20613;-78
2024/03/09 13:53:35;;;;;;;4.47;2.45;;;20.70;30.50;;;;;;4069113;29;20107;-77
2024/03/09 13:55:38;;;;;;;5.05;2.30;;;20.90;30.70;;;;;;4069325;29;20052;-78
2024/03/09 13:57:42;;;;;;;4.63;2.35;;;20.90;29.40;;;;;;4069177;29;20052;-78
2024/03/09 13:59:44;;;;;;;4.65;2.30;;;20.70;29.50;;;;;;4068589;29;20056;-79
2024/03/09 14:01:46;;;;;;;4.97;2.35;;;20.50;29.50;;;;;;4069048;29;20060;-76
2024/03/09 14:03:49;;;;;;;4.32;2.08;;;20.40;31.00;;;;;;4069255;29;20056;-77
2024/03/09 14:05:51;;;;;;;3.83;2.00;;;20.50;29.80;;;;;;4069110;29;20044;-77
2024/03/09 14:07:56;;;;;;;4.30;1.95;;;21.00;29.20;;;;;;4068961;29;20202;-77
2024/03/09 14:09:58;;;;;;;3.70;1.90;;;21.40;29.40;;;;;;4069280;29;20144;-78
2024/03/09 14:11:59;;;;;;;4.38;2.10;;;21.40;28.90;;;;;;4069105;29;20048;-78
2024/03/09 14:14:08;;;;;;;5.38;2.70;;;21.30;28.70;;;;;;4069126;29;20083;-79
2024/03/09 14:16:13;;;;;;;6.78;2.60;;;21.20;29.00;;;;;;4069159;29;20078;-77
2024/03/09 14:18:15;;;;;;;4.75;2.90;;;21.40;29.50;;;;;;4069334;29;20052;-76
2024/03/09 14:20:21;;;;;;;5.65;2.47;;;21.80;28.90;;;;;;4069107;29;20143;-77
2024/03/09 14:22:23;;;;;;;4.93;2.10;;;22.00;27.80;;;;;;4068922;29;20051;-77
2024/03/09 14:24:25;;;;;;;7.13;3.45;;;22.00;27.70;;;;;;4068898;29;20096;-77
2024/03/09 14:26:28;;;;;;;9.05;5.88;;;21.90;28.10;;;;;;4068963;29;20458;-78
2024/03/09 14:28:30;;;;;;;4.47;2.30;;;22.20;27.70;;;;;;4068981;29;20059;-78
2024/03/09 14:30:34;;;;;;;4.63;2.30;;;22.50;27.30;;;;;;4068918;29;20446;-78
2024/03/09 14:32:39;;;;;;;4.35;2.17;;;22.90;27.40;;;;;;4078136;29;20056;-79
2024/03/09 14:34:41;;;;;;;3.90;2.15;;;23.00;27.60;;;;;;4084584;29;20047;-78
2024/03/09 14:36:43;;;;;;;4.93;1.98;;;23.10;27.20;;;;;;4071130;29;20453;-79
2024/03/09 14:38:46;;;;;;;3.92;2.15;;;23.00;27.50;;;;;;4068873;29;20052;-79
2024/03/09 14:40:51;;;;;;;5.68;2.05;;;22.60;27.90;;;;;;4069015;29;20052;-78
2024/03/09 14:42:53;;;;;;;4.10;2.20;;;21.90;27.50;;;;;;4068739;29;20489;-77
2024/03/09 14:44:56;;;;;;;4.68;2.35;;;21.50;27.70;;;;;;4068813;29;20390;-78
2024/03/09 14:46:59;;;;;;;4.57;2.20;;;21.30;28.50;;;;;;4068655;29;20363;-77
2024/03/09 14:49:01;;;;;;;3.67;2.17;;;21.10;28.20;;;;;;4068687;29;20048;-79
2024/03/09 14:51:07;;;;;;;4.32;2.20;;;21.00;28.80;;;;;;4068419;29;20048;-76
2024/03/09 14:53:13;;;;;;;5.03;2.20;;;20.70;28.70;;;;;;4068754;29;20100;-77
2024/03/09 14:55:19;;;;;;;4.63;2.30;;;20.80;28.80;;;;;;4068560;29;20048;-79
2024/03/09 14:57:21;;;;;;;4.50;2.13;;;21.40;28.90;;;;;;4068761;29;20059;-79
2024/03/09 14:59:28;;;;;;;4.15;2.10;;;22.10;28.30;;;;;;4068756;29;20049;-78
2024/03/09 15:01:30;;;;;;;5.55;2.35;;;22.20;28.20;;;;;;4068637;29;20064;-78
2024/03/09 15:03:34;;;;;;;3.88;2.17;;;21.90;28.30;;;;;;4068733;29;20048;-79
2024/03/09 15:05:34;;;;;;;4.38;2.13;;;21.70;29.00;;;;;;4068687;29;20073;-77
2024/03/09 15:07:36;;;;;;;4.90;2.45;;;21.70;29.50;;;;;;4068599;29;20052;-79
2024/03/09 15:09:39;;;;;;;5.47;2.60;;;22.00;29.20;;;;;;4068846;29;20138;-77
2024/03/09 15:11:42;;;;;;;6.00;3.00;;;22.10;29.50;;;;;;4071418;29;20478;-77
2024/03/09 15:13:47;;;;;;;6.68;4.15;;;22.00;29.40;;;;;;4071869;29;20052;-79
2024/03/09 15:15:50;;;;;;;5.93;3.80;;;21.60;29.10;;;;;;4071486;29;20458;-77
2024/03/09 15:17:51;;;;;;;5.63;3.30;;;21.10;29.80;;;;;;4071551;29;20060;-80
2024/03/09 15:19:55;;;;;;;5.60;3.30;;;20.60;30.70;;;;;;4071475;29;20048;-76
2024/03/09 15:21:58;;;;;;;5.72;3.30;;;20.50;31.60;;;;;;4071523;29;20044;-77
2024/03/09 15:24:00;;;;;;;6.88;3.80;;;20.20;32.00;;;;;;4071426;29;20054;-76
2024/03/09 15:26:01;;;;;;;6.00;3.33;;;20.10;32.90;;;;;;4071377;29;20083;-77
2024/03/09 15:28:03;;;;;;;6.80;3.75;;;20.00;32.40;;;;;;4071324;29;20414;-79
2024/03/09 15:30:07;;;;;;;5.85;3.58;;;19.80;33.50;;;;;;4071263;29;20427;-78
2024/03/09 15:32:10;;;;;;;6.35;3.50;;;19.50;33.40;;;;;;4071280;29;20048;-79
2024/03/09 15:34:12;;;;;;;7.05;4.25;;;19.40;34.10;;;;;;4072174;29;20048;-78
2024/03/09 15:36:15;;;;;;;7.63;4.85;;;18.90;35.40;;;;;;4071298;29;20056;-78
2024/03/09 15:38:18;;;;;;;8.95;4.78;;;18.70;36.00;;;;;;4071158;29;20052;-78
2024/03/09 15:40:24;;;;;;;8.52;5.30;;;18.70;36.80;;;;;;4071061;29;20060;-79
2024/03/09 15:42:25;;;;;;;;;;;18.50;37.60;;;;;;4071577;29;20127;-77
2024/03/09 15:44:27;;;;;;;8.52;5.22;;;18.50;38.40;;;;;;4070983;29;19978;-79
2024/03/09 15:46:32;;;;;;;9.70;5.63;;;18.40;38.90;;;;;;4071097;29;20458;-76
2024/03/09 15:48:34;;;;;;;9.52;5.75;;;18.30;39.40;;;;;;4071068;29;20084;-75
2024/03/09 15:50:39;;;;;;;10.25;6.10;;;18.50;39.80;;;;;;4070990;29;20052;-77
2024/03/09 15:52:44;;;;;;;8.73;6.03;;;18.60;39.70;;;;;;4071057;29;20051;-76
2024/03/09 15:54:51;;;;;;;8.82;5.97;;;18.80;39.60;;;;;;4070949;29;20096;-78
2024/03/09 15:56:54;;;;;;;9.60;5.93;;;18.90;39.40;;;;;;4070878;29;20052;-77
2024/03/09 15:58:56;;;;;;;10.90;6.47;;;19.30;39.40;;;;;;4070960;29;20447;-79
2024/03/09 16:01:02;;;;;;;10.30;6.78;;;19.30;39.00;;;;;;4070820;29;20068;-78
2024/03/09 16:03:05;;;;;;;11.15;6.47;;;19.30;39.30;;;;;;4071006;29;20056;-80
2024/03/09 16:05:08;;;;;;;9.85;6.25;;;19.20;39.40;;;;;;4070926;29;20134;-78
2024/03/09 16:07:13;;;;;;;12.35;7.25;;;19.20;41.00;;;;;;4070840;29;20052;-79
2024/03/09 16:09:20;;;;;;;10.82;7.22;;;18.90;40.80;;;;;;4070818;29;20111;-78
2024/03/09 16:11:25;;;;;;;12.30;7.22;;;18.80;41.20;;;;;;4070586;29;20049;-78
2024/03/09 16:13:27;;;;;;;13.05;8.68;;;18.60;41.60;;;;;;4070643;29;20044;-79
2024/03/09 16:15:30;;;;;;;15.73;9.00;;;18.40;42.40;;;;;;4070592;29;20048;-76
2024/03/09 16:17:34;;;;;;;13.68;9.20;;;18.10;42.90;;;;;;4070585;29;20048;-76
2024/03/09 16:19:37;;;;;;;13.02;8.48;;;18.00;43.50;;;;;;4070583;29;20479;-77
2024/03/09 16:21:41;;;;;;;12.55;8.45;;;17.70;44.40;;;;;;4069931;29;20099;-77
2024/03/09 16:23:45;;;;;;;12.88;8.35;;;17.60;45.00;;;;;;4070428;29;20058;-79
2024/03/09 16:25:50;;;;;;;12.45;8.45;;;17.50;45.20;;;;;;4070375;29;20474;-79
2024/03/09 16:27:52;;;;;;;15.05;9.25;;;17.40;45.40;;;;;;4070188;29;20052;-79
2024/03/09 16:29:54;;;;;;;12.95;8.65;;;17.30;45.80;;;;;;4070233;29;20052;-77
2024/03/09 16:31:57;;;;;;;12.32;8.55;;;17.10;46.50;;;;;;4070018;29;20055;-77
2024/03/09 16:34:05;;;;;;;14.05;7.85;;;17.00;46.90;;;;;;4074303;29;20043;-80
2024/03/09 16:36:09;;;;;;;11.57;7.72;;;16.90;47.40;;;;;;4085883;29;20462;-79
2024/03/09 16:38:20;;;;;;;10.57;7.40;;;16.70;48.00;;;;;;4085972;29;20532;-77